Terminal Aerodrome Forecast
Issued by NWS Missoula, MT

Home | Current Version | Previous Version | Text Only | Print | Product List | Glossary On
Versions: 1 2 3 4 5 6 7 8 9 10 11 12 13 14 15 16 17 18 19 20 21 22 23 24 25 26 27 28 29 30
529
FTUS45 KMSO 251217 AAA
TAFBTM
TAF AMD
KBTM 251217Z 2512/2612 VRB03KT P6SM VCSH SCT025 BKN050
      TEMPO 2512/2515 6SM -SHSN SCT020 BKN030
     FM251800 30012G20KT P6SM OVC070
     FM260200 29006KT P6SM OVC050=

USA.gov is the U.S. government's official web portal to all federal, state and local government web resources and services.